Lac Du Flambeau, Wisconsin
Current Conditions -  °F | °C
As of 11:15 AM on Wednesday 26 Nov 2014 (Local Time) from KARV Reporting Station
Light Snow Light Snow  
Wind Chill: 22°   Ceiling: Unl
Heat Index: 22°   Visibility: 2.5mi
Dew Point: 18°   Wind: 0mph
Humidity: 85%   Direction: NA
Pressure: 30.1"   Gusts: NA
Location:  45.97°N, 89.89°W
Report Text: KARV 261715Z AUTO 00000KT 2 1/2SM -SN CLR M06/M08 A3010 RMK AO2 T10571078
Loading
Personal Weather Stations






























Interactive Weather Map New forecast layout! Learn more

10-Day Weather Forecast

Advertisements
Track Severe Weather on mobile